createdAt,value
2023-08-25T00:01:40.381Z,6.90
2023-08-25T00:04:07.265Z,7.07
2023-08-25T00:06:34.133Z,6.77
2023-08-25T00:09:00.937Z,6.50
2023-08-25T00:11:27.694Z,6.30
2023-08-25T00:13:54.607Z,6.70
2023-08-25T00:16:21.665Z,7.23
2023-08-25T00:18:48.965Z,6.55
2023-08-25T00:21:16.188Z,6.97
2023-08-25T00:23:43.129Z,6.53
2023-08-25T00:26:09.877Z,6.50
2023-08-25T00:28:36.644Z,7.10
2023-08-25T00:31:03.960Z,7.33
2023-08-25T00:33:30.939Z,7.07
2023-08-25T00:35:57.816Z,7.47
2023-08-25T00:38:29.745Z,7.47
2023-08-25T00:40:56.625Z,7.88
2023-08-25T00:43:23.576Z,6.73
2023-08-25T00:45:50.382Z,6.43
2023-08-25T00:48:17.685Z,6.50
2023-08-25T00:50:46.129Z,6.28
2023-08-25T00:53:13.981Z,7.47
2023-08-25T00:55:41.003Z,6.95
2023-08-25T00:58:09.126Z,7.15
2023-08-25T01:00:36.978Z,6.93
2023-08-25T01:03:04.405Z,7.25
2023-08-25T01:05:31.369Z,7.22
2023-08-25T01:07:58.781Z,6.93
2023-08-25T01:10:40.752Z,6.88
2023-08-25T01:13:14.484Z,7.72
2023-08-25T01:15:46.602Z,6.80
2023-08-25T01:18:19.116Z,6.90
2023-08-25T01:20:49.687Z,7.03
2023-08-25T01:23:48.450Z,7.10
2023-08-25T01:26:16.323Z,7.72
2023-08-25T01:28:43.262Z,7.18
2023-08-25T01:31:11.290Z,7.47
2023-08-25T01:33:40.787Z,6.97
2023-08-25T01:36:35.066Z,7.68
2023-08-25T01:39:08.289Z,7.38
2023-08-25T01:41:44.717Z,7.05
2023-08-25T01:44:14.228Z,7.47
2023-08-25T01:46:45.079Z,7.15
2023-08-25T01:49:15.472Z,7.78
2023-08-25T01:51:43.235Z,7.65
2023-08-25T01:54:10.673Z,8.85
2023-08-25T01:56:37.672Z,7.10
2023-08-25T01:59:04.524Z,7.53
2023-08-25T02:01:33.205Z,8.03
2023-08-25T02:04:00.049Z,6.75
2023-08-25T02:06:26.852Z,6.97
2023-08-25T02:08:53.647Z,7.07
2023-08-25T02:11:20.762Z,7.50
2023-08-25T02:13:47.583Z,7.22
2023-08-25T02:16:14.457Z,7.27
2023-08-25T02:18:42.356Z,7.57
2023-08-25T02:21:09.249Z,7.70
2023-08-25T02:23:36.130Z,7.30
2023-08-25T02:26:03.609Z,6.43
2023-08-25T02:28:30.358Z,12.32
2023-08-25T02:30:57.437Z,9.07
2023-08-25T02:33:24.318Z,6.88
2023-08-25T02:35:51.820Z,9.03
2023-08-25T02:38:18.674Z,9.02
2023-08-25T02:40:45.426Z,6.87
2023-08-25T02:43:12.469Z,7.00
2023-08-25T02:45:39.617Z,6.07
2023-08-25T02:48:07.007Z,7.53
2023-08-25T02:50:34.782Z,7.25
2023-08-25T02:53:01.640Z,7.25
2023-08-25T02:55:28.406Z,6.47
2023-08-25T02:57:55.605Z,6.33
2023-08-25T03:02:52.835Z,5.75
2023-08-25T03:05:20.169Z,6.05
2023-08-25T03:07:46.967Z,5.45
2023-08-25T03:10:13.723Z,5.20
2023-08-25T03:12:41.166Z,5.90
2023-08-25T03:15:08.832Z,5.10
2023-08-25T03:20:04.066Z,5.07
2023-08-25T03:22:31.042Z,5.18
2023-08-25T03:24:57.753Z,4.90
2023-08-25T03:27:24.510Z,4.63
2023-08-25T03:29:51.301Z,4.80
2023-08-25T03:32:18.094Z,4.67
2023-08-25T03:34:44.915Z,5.80
2023-08-25T03:37:13.039Z,5.53
2023-08-25T03:39:39.975Z,4.85
2023-08-25T03:42:07.242Z,4.95
2023-08-25T03:44:34.113Z,5.25
2023-08-25T03:47:01.048Z,5.00
2023-08-25T03:49:31.197Z,5.38
2023-08-25T03:51:59.790Z,5.07
2023-08-25T03:54:29.328Z,5.18
2023-08-25T03:56:56.179Z,5.63
2023-08-25T03:59:22.958Z,5.53
2023-08-25T04:01:50.291Z,5.47
2023-08-25T04:04:17.169Z,4.97
2023-08-25T04:06:43.931Z,6.40
2023-08-25T04:09:10.785Z,6.20
2023-08-25T04:11:38.196Z,6.37
2023-08-25T04:14:05.048Z,5.10
2023-08-25T04:16:31.884Z,5.20
2023-08-25T04:18:59.901Z,5.30
2023-08-25T04:21:27.965Z,5.25
2023-08-25T04:23:54.812Z,4.28
2023-08-25T04:26:21.907Z,5.10
2023-08-25T04:28:48.766Z,4.97
2023-08-25T04:31:15.659Z,5.50
2023-08-25T04:33:43.112Z,5.30
2023-08-25T04:36:10.211Z,5.57
2023-08-25T04:38:36.976Z,5.83
2023-08-25T04:41:03.715Z,5.30
2023-08-25T04:43:30.585Z,5.25
2023-08-25T04:45:57.598Z,5.43
2023-08-25T04:48:24.493Z,5.07
2023-08-25T04:50:51.574Z,5.50
2023-08-25T04:53:18.304Z,4.95
2023-08-25T04:55:45.254Z,5.37
2023-08-25T04:58:12.079Z,5.70
2023-08-25T05:00:38.976Z,5.30
2023-08-25T05:03:08.714Z,5.37
2023-08-25T05:05:35.733Z,13.63
2023-08-25T05:08:02.768Z,15.27
2023-08-25T05:10:29.598Z,20.73
2023-08-25T05:12:56.942Z,5.80
2023-08-25T05:15:23.754Z,5.47
2023-08-25T05:17:50.628Z,9.77
2023-08-25T05:20:20.204Z,6.13
2023-08-25T05:22:47.004Z,5.80
2023-08-25T05:25:13.964Z,5.77
2023-08-25T05:27:40.890Z,5.93
2023-08-25T05:30:08.213Z,7.30
2023-08-25T05:32:35.223Z,6.03
2023-08-25T05:35:02.997Z,5.90
2023-08-25T05:37:29.789Z,5.90
2023-08-25T05:39:56.725Z,6.03
2023-08-25T05:42:28.370Z,6.10
2023-08-25T05:44:56.119Z,5.50
2023-08-25T05:47:23.428Z,5.65
2023-08-25T05:49:50.677Z,6.47
2023-08-25T05:52:18.120Z,6.28
2023-08-25T05:54:44.928Z,6.65
2023-08-25T05:57:11.798Z,6.13
2023-08-25T05:59:38.793Z,6.57
2023-08-25T06:02:06.421Z,5.70
2023-08-25T06:06:59.982Z,5.10
2023-08-25T06:09:26.855Z,6.63
2023-08-25T06:11:55.116Z,6.15
2023-08-25T06:14:22.027Z,6.15
2023-08-25T06:16:48.921Z,6.65
2023-08-25T06:19:16.320Z,5.10
2023-08-25T06:21:43.176Z,6.15
2023-08-25T06:24:11.412Z,4.93
2023-08-25T06:26:39.327Z,10.90
2023-08-25T06:33:41.291Z,6.10
2023-08-25T06:36:08.120Z,5.18
2023-08-25T06:38:42.586Z,5.67
2023-08-25T06:41:13.063Z,5.70
2023-08-25T06:43:39.978Z,5.77
2023-08-25T06:46:06.887Z,5.30
2023-08-25T06:48:33.676Z,6.17
2023-08-25T06:51:00.506Z,5.13
2023-08-25T06:53:27.444Z,6.17
2023-08-25T06:55:54.470Z,5.47
2023-08-25T06:58:21.337Z,6.10
2023-08-25T07:00:48.817Z,6.17
2023-08-25T07:03:15.786Z,6.15
2023-08-25T07:05:42.672Z,6.70
2023-08-25T07:08:09.450Z,6.43
2023-08-25T07:10:37.322Z,5.73
2023-08-25T07:13:04.332Z,5.72
2023-08-25T07:15:31.161Z,6.40
2023-08-25T07:17:58.140Z,6.00
2023-08-25T07:20:25.025Z,6.45
2023-08-25T07:22:51.714Z,5.93
2023-08-25T07:25:18.529Z,6.88
2023-08-25T07:27:45.487Z,7.77
2023-08-25T07:30:12.981Z,6.30
2023-08-25T07:32:39.803Z,6.57
2023-08-25T07:35:07.310Z,7.23
2023-08-25T07:37:34.226Z,6.38
2023-08-25T07:40:01.035Z,6.83
2023-08-25T07:42:28.424Z,7.13
2023-08-25T07:44:55.245Z,6.78
2023-08-25T07:47:22.014Z,6.70
2023-08-25T07:49:48.790Z,6.47
2023-08-25T07:52:15.689Z,5.80
2023-08-25T07:54:42.586Z,5.57
2023-08-25T07:57:09.315Z,7.45
2023-08-25T07:59:36.259Z,6.57
2023-08-25T08:02:05.061Z,6.43
2023-08-25T08:04:33.444Z,6.32
2023-08-25T08:07:03.466Z,5.80
2023-08-25T08:09:30.363Z,6.22
2023-08-25T08:11:57.675Z,5.47
2023-08-25T08:14:35.895Z,6.05
2023-08-25T08:17:11.724Z,6.70
2023-08-25T08:19:38.740Z,7.07
2023-08-25T08:22:05.650Z,6.97
2023-08-25T08:24:49.060Z,6.80
2023-08-25T08:27:21.403Z,8.13
2023-08-25T08:29:48.835Z,8.43
2023-08-25T08:34:42.561Z,10.95
2023-08-25T08:37:09.262Z,12.10
2023-08-25T08:39:38.887Z,10.57
2023-08-25T08:42:09.013Z,10.98
2023-08-25T08:44:40.139Z,11.50
2023-08-25T08:47:07.997Z,12.07
2023-08-25T08:49:35.388Z,11.70
2023-08-25T08:52:03.106Z,13.00
2023-08-25T08:54:30.162Z,13.00
2023-08-25T08:56:56.897Z,14.00
2023-08-25T08:59:24.311Z,13.43
2023-08-25T09:01:51.317Z,12.07
2023-08-25T09:04:21.337Z,10.27
2023-08-25T09:06:52.523Z,10.68
2023-08-25T09:09:20.917Z,11.95
2023-08-25T09:11:51.277Z,11.27
2023-08-25T09:14:29.227Z,10.25
2023-08-25T09:17:03.901Z,9.95
2023-08-25T09:19:32.114Z,9.55
2023-08-25T09:21:59.868Z,9.43
2023-08-25T09:24:27.093Z,7.68
2023-08-25T09:26:53.916Z,6.78
2023-08-25T09:29:20.895Z,5.10
2023-08-25T09:31:47.696Z,5.15
2023-08-25T09:34:15.779Z,4.27
2023-08-25T09:36:55.700Z,3.38
2023-08-25T09:39:23.373Z,3.83
2023-08-25T09:41:50.877Z,3.30
2023-08-25T09:46:45.929Z,3.95
2023-08-25T09:49:14.906Z,4.25
2023-08-25T09:51:46.888Z,4.63
2023-08-25T09:54:17.753Z,4.65
2023-08-25T09:56:46.844Z,4.72
2023-08-25T09:59:15.328Z,5.35
2023-08-25T10:01:44.123Z,5.80
2023-08-25T10:04:11.765Z,5.80
2023-08-25T10:06:39.940Z,7.00
2023-08-25T10:09:08.173Z,6.80
2023-08-25T10:11:43.123Z,16.30
2023-08-25T10:14:13.357Z,9.95
2023-08-25T10:16:54.158Z,7.40
2023-08-25T10:19:28.426Z,8.90
2023-08-25T10:21:57.098Z,7.47
2023-08-25T10:24:30.072Z,8.20
2023-08-25T10:26:57.592Z,7.78
2023-08-25T10:31:58.518Z,10.55
2023-08-25T10:34:45.028Z,11.65
2023-08-25T10:37:12.930Z,11.52
2023-08-25T10:39:54.294Z,12.65
2023-08-25T10:42:27.138Z,15.82
2023-08-25T10:45:04.893Z,15.30
2023-08-25T10:47:32.333Z,10.32
2023-08-25T10:52:32.759Z,11.90
2023-08-25T10:55:33.833Z,10.30
2023-08-25T10:58:04.774Z,10.68
2023-08-25T11:00:37.945Z,8.88
2023-08-25T11:03:05.986Z,10.85
2023-08-25T11:05:35.991Z,10.98
2023-08-25T11:08:07.028Z,8.48
2023-08-25T11:10:35.778Z,10.18
2023-08-25T11:13:10.611Z,10.82
2023-08-25T11:15:39.741Z,11.80
2023-08-25T11:18:09.938Z,12.70
2023-08-25T11:20:45.260Z,11.63
2023-08-25T11:23:20.120Z,12.70
2023-08-25T11:25:48.058Z,11.52
2023-08-25T11:28:15.115Z,10.40
2023-08-25T11:30:42.070Z,10.60
2023-08-25T11:33:10.623Z,7.45
2023-08-25T11:35:37.594Z,7.72
2023-08-25T11:38:04.937Z,7.32
2023-08-25T11:40:31.961Z,7.72
2023-08-25T11:42:58.957Z,7.22
2023-08-25T11:45:29.952Z,6.70
2023-08-25T11:47:57.614Z,5.53
2023-08-25T11:50:26.324Z,5.57
2023-08-25T11:52:59.912Z,9.10
2023-08-25T11:55:34.650Z,6.82
2023-08-25T11:58:09.787Z,6.88
2023-08-25T12:00:40.287Z,5.88
2023-08-25T12:03:07.858Z,6.05
2023-08-25T12:05:36.744Z,10.38
2023-08-25T12:08:04.410Z,7.38
2023-08-25T12:10:38.193Z,10.45
2023-08-25T12:13:05.195Z,7.13
2023-08-25T12:15:46.794Z,6.50
2023-08-25T12:18:14.483Z,6.85
2023-08-25T12:20:45.683Z,7.72
2023-08-25T12:23:12.710Z,7.53
2023-08-25T12:25:39.623Z,6.88
2023-08-25T12:28:06.845Z,4.70
2023-08-25T12:30:33.824Z,3.75
2023-08-25T12:33:00.821Z,3.80
2023-08-25T12:35:27.918Z,4.57
2023-08-25T12:37:55.129Z,4.28
2023-08-25T12:42:51.637Z,4.90
2023-08-25T12:45:19.037Z,5.53
2023-08-25T12:50:13.079Z,10.57
2023-08-25T12:52:40.050Z,5.78
2023-08-25T12:55:19.617Z,6.38
2023-08-25T12:57:48.159Z,10.45
2023-08-25T13:00:15.185Z,6.93
2023-08-25T13:02:42.152Z,6.10
2023-08-25T13:05:11.189Z,5.85
2023-08-25T13:07:42.201Z,5.55
2023-08-25T13:10:09.870Z,5.93
2023-08-25T13:12:37.466Z,5.00
2023-08-25T13:15:04.798Z,5.55
2023-08-25T13:17:31.783Z,6.05
2023-08-25T13:19:58.616Z,7.25
2023-08-25T13:22:25.467Z,6.80
2023-08-25T13:24:52.339Z,6.27
2023-08-25T13:27:19.489Z,6.72
2023-08-25T13:29:46.314Z,5.78
2023-08-25T13:32:13.514Z,6.10
2023-08-25T13:34:40.506Z,6.32
2023-08-25T13:37:07.480Z,7.53
2023-08-25T13:39:36.299Z,6.63
2023-08-25T13:42:03.160Z,4.57
2023-08-25T13:44:34.342Z,4.90
2023-08-25T13:47:02.124Z,4.40
2023-08-25T13:49:29.107Z,4.30
2023-08-25T13:51:55.920Z,3.78
2023-08-25T13:56:50.350Z,2.92
2023-08-25T14:01:44.401Z,3.13
2023-08-25T14:04:11.233Z,3.33
2023-08-25T14:06:38.029Z,2.58
2023-08-25T14:09:06.223Z,2.67
2023-08-25T14:11:33.107Z,2.30
2023-08-25T14:14:00.331Z,2.65
2023-08-25T14:21:21.342Z,2.90
2023-08-25T14:26:14.961Z,2.85
2023-08-25T14:28:42.024Z,2.83
2023-08-25T14:31:09.026Z,2.70
2023-08-25T14:33:35.905Z,3.00
2023-08-25T14:36:02.821Z,3.53
2023-08-25T14:38:29.622Z,6.72
2023-08-25T14:40:56.564Z,3.70
2023-08-25T14:43:23.302Z,3.15
2023-08-25T14:45:50.182Z,3.50
2023-08-25T14:48:17.050Z,3.78
2023-08-25T14:50:43.898Z,3.67
2023-08-25T14:53:11.960Z,3.88
2023-08-25T14:55:38.871Z,3.92
2023-08-25T14:58:05.672Z,4.55
2023-08-25T15:00:32.573Z,4.32
2023-08-25T15:03:00.722Z,3.88
2023-08-25T15:05:27.761Z,4.07
2023-08-25T15:07:54.838Z,3.70
2023-08-25T15:10:22.284Z,4.30
2023-08-25T15:12:49.272Z,4.10
2023-08-25T15:15:16.204Z,4.70
2023-08-25T15:17:43.087Z,4.72
2023-08-25T15:20:10.411Z,5.82
2023-08-25T15:25:05.407Z,4.05
2023-08-25T15:27:32.445Z,3.92
2023-08-25T15:29:59.274Z,4.72
2023-08-25T15:32:26.100Z,3.85
2023-08-25T15:34:52.931Z,3.92
2023-08-25T15:37:20.025Z,4.25
2023-08-25T15:39:46.958Z,4.15
2023-08-25T15:42:15.812Z,4.70
2023-08-25T15:44:43.462Z,4.05
2023-08-25T15:47:10.297Z,4.00
2023-08-25T15:49:37.294Z,4.40
2023-08-25T15:52:04.621Z,4.47
2023-08-25T15:56:58.048Z,4.20
2023-08-25T15:59:25.187Z,5.00
2023-08-25T16:01:52.582Z,4.97
2023-08-25T16:06:46.156Z,3.05
2023-08-25T16:09:13.493Z,3.57
2023-08-25T16:11:40.974Z,3.40
2023-08-25T16:14:07.917Z,4.20
2023-08-25T16:16:34.822Z,3.55
2023-08-25T16:19:01.755Z,3.45
2023-08-25T16:21:28.626Z,3.00
2023-08-25T16:23:55.442Z,13.23
2023-08-25T16:26:22.318Z,8.15
2023-08-25T16:28:49.665Z,16.70
2023-08-25T16:31:17.006Z,18.30
2023-08-25T16:36:13.672Z,4.50
2023-08-25T16:38:40.573Z,3.33
2023-08-25T16:41:08.934Z,2.60
2023-08-25T16:43:35.818Z,4.10
2023-08-25T16:46:04.596Z,3.28
2023-08-25T16:48:31.930Z,3.40
2023-08-25T16:50:58.704Z,3.17
2023-08-25T16:53:25.568Z,2.57
2023-08-25T16:55:52.420Z,2.50
2023-08-25T16:58:19.448Z,8.40
2023-08-25T17:00:49.425Z,3.22
2023-08-25T17:03:16.435Z,3.00
2023-08-25T17:05:43.304Z,3.63
2023-08-25T17:08:10.155Z,3.53
2023-08-25T17:10:37.447Z,2.85
2023-08-25T17:13:04.509Z,2.95
2023-08-25T17:15:37.985Z,2.40
2023-08-25T17:18:06.304Z,3.75
2023-08-25T17:20:33.439Z,4.63
2023-08-25T17:23:00.595Z,2.97
2023-08-25T17:25:27.435Z,18.80
2023-08-25T17:27:55.089Z,15.68
2023-08-25T17:30:22.237Z,3.72
2023-08-25T17:32:49.149Z,3.10
2023-08-25T17:35:16.075Z,3.47
2023-08-25T17:37:42.988Z,3.05
2023-08-25T17:40:10.042Z,3.92
2023-08-25T17:42:36.845Z,3.00
2023-08-25T17:45:03.958Z,3.43
2023-08-25T17:47:31.176Z,5.05
2023-08-25T17:49:58.108Z,3.92
2023-08-25T17:52:25.006Z,3.55
2023-08-25T17:58:40.715Z,3.95
2023-08-25T18:01:08.870Z,4.50
2023-08-25T18:03:40.170Z,4.53
2023-08-25T18:06:07.412Z,4.38
2023-08-25T18:08:37.081Z,6.30
2023-08-25T18:11:04.133Z,4.88
2023-08-25T18:13:32.091Z,4.30
2023-08-25T18:15:59.636Z,4.55
2023-08-25T18:18:26.776Z,5.10
2023-08-25T18:21:02.346Z,5.63
2023-08-25T18:23:31.893Z,6.07
2023-08-25T18:25:59.157Z,6.00
2023-08-25T18:28:26.175Z,5.60
2023-08-25T18:31:01.656Z,5.93
2023-08-25T18:33:29.406Z,5.93
2023-08-25T18:35:57.178Z,7.07
2023-08-25T18:40:51.161Z,7.78
2023-08-25T18:43:18.015Z,29.10
2023-08-25T18:45:44.817Z,27.73
2023-08-25T18:48:11.716Z,12.40
2023-08-25T18:50:38.568Z,7.60
2023-08-25T18:53:05.428Z,7.90
2023-08-25T18:55:32.298Z,6.45
2023-08-25T18:57:59.147Z,7.38
2023-08-25T19:00:25.992Z,8.73
2023-08-25T19:02:53.139Z,5.75
2023-08-25T19:05:21.218Z,5.97
2023-08-25T19:07:48.304Z,6.50
2023-08-25T19:10:20.505Z,14.05
2023-08-25T19:12:50.757Z,6.78
2023-08-25T19:15:17.628Z,10.82
2023-08-25T19:17:44.452Z,7.40
2023-08-25T19:20:17.093Z,6.43
2023-08-25T19:22:43.853Z,7.32
2023-08-25T19:25:10.630Z,7.53
2023-08-25T19:27:37.358Z,6.57
2023-08-25T19:30:04.667Z,7.47
2023-08-25T19:32:31.583Z,8.07
2023-08-25T19:34:58.586Z,8.98
2023-08-25T19:37:26.383Z,7.43
2023-08-25T19:39:53.863Z,7.93
2023-08-25T19:44:50.406Z,8.05
2023-08-25T19:47:17.532Z,9.07
2023-08-25T19:49:44.411Z,8.43
2023-08-25T19:52:11.884Z,7.93
2023-08-25T19:54:38.988Z,8.40
2023-08-25T19:57:06.263Z,8.60
2023-08-25T19:59:33.967Z,9.43
2023-08-25T20:02:01.950Z,8.75
2023-08-25T20:04:28.918Z,10.00
2023-08-25T20:06:55.799Z,10.15
2023-08-25T20:09:23.216Z,10.23
2023-08-25T20:11:50.025Z,9.23
2023-08-25T20:14:16.792Z,9.53
2023-08-25T20:16:43.710Z,12.80
2023-08-25T20:19:10.576Z,11.35
2023-08-25T20:21:37.755Z,10.53
2023-08-25T20:24:04.911Z,10.52
2023-08-25T20:26:31.718Z,11.02
2023-08-25T20:29:00.078Z,11.40
2023-08-25T20:31:27.004Z,12.48
2023-08-25T20:33:53.822Z,11.38
2023-08-25T20:36:20.573Z,11.57
2023-08-25T20:38:49.482Z,14.90
2023-08-25T20:41:16.256Z,11.48
2023-08-25T20:43:43.070Z,11.40
2023-08-25T20:46:17.935Z,21.27
2023-08-25T20:48:50.574Z,10.77
2023-08-25T20:51:23.254Z,13.15
2023-08-25T20:53:51.458Z,11.93
2023-08-25T20:56:21.322Z,11.75
2023-08-25T20:58:48.375Z,11.60
2023-08-25T21:01:15.188Z,13.13
2023-08-25T21:03:42.191Z,10.63
2023-08-25T21:06:09.143Z,11.23
2023-08-25T21:08:36.579Z,11.47
2023-08-25T21:11:03.433Z,10.43
2023-08-25T21:13:30.230Z,10.50
2023-08-25T21:15:58.723Z,10.60
2023-08-25T21:18:25.625Z,9.38
2023-08-25T21:20:54.515Z,10.73
2023-08-25T21:23:22.623Z,9.65
2023-08-25T21:25:57.341Z,9.95
2023-08-25T21:28:26.341Z,9.85
2023-08-25T21:31:03.148Z,8.98
2023-08-25T21:33:32.621Z,9.32
2023-08-25T21:35:59.435Z,9.80
2023-08-25T21:38:26.248Z,9.97
2023-08-25T21:40:53.122Z,9.57
2023-08-25T21:43:19.862Z,9.98
2023-08-25T21:45:48.159Z,9.77
2023-08-25T21:48:15.498Z,10.02
2023-08-25T21:50:47.258Z,10.32
2023-08-25T21:53:14.104Z,9.93
2023-08-25T21:55:41.605Z,8.90
2023-08-25T22:00:35.869Z,10.00
2023-08-25T22:03:03.799Z,9.75
2023-08-25T22:05:30.806Z,9.70
2023-08-25T22:07:57.777Z,8.90
2023-08-25T22:10:24.729Z,9.13
2023-08-25T22:12:54.663Z,9.70
2023-08-25T22:15:22.457Z,9.45
2023-08-25T22:17:49.279Z,10.02
2023-08-25T22:20:16.077Z,10.63
2023-08-25T22:22:42.880Z,9.83
2023-08-25T22:25:10.293Z,8.93
2023-08-25T22:27:37.912Z,9.50
2023-08-25T22:35:03.298Z,9.35
2023-08-25T22:37:30.237Z,8.65
2023-08-25T22:39:56.992Z,9.98
2023-08-25T22:42:23.721Z,8.43
2023-08-25T22:44:50.481Z,8.77
2023-08-25T22:47:17.441Z,10.07
2023-08-25T22:49:44.302Z,9.15
2023-08-25T22:52:11.793Z,9.50
2023-08-25T22:54:38.660Z,9.32
2023-08-25T22:57:05.621Z,9.33
2023-08-25T22:59:32.459Z,9.88
2023-08-25T23:02:00.722Z,8.87
2023-08-25T23:04:27.674Z,9.65
2023-08-25T23:06:54.529Z,10.15
2023-08-25T23:09:21.890Z,10.23
2023-08-25T23:11:49.943Z,11.43
2023-08-25T23:14:16.808Z,9.50
2023-08-25T23:16:43.621Z,9.53
2023-08-25T23:19:12.276Z,9.53
2023-08-25T23:21:40.867Z,9.98
2023-08-25T23:24:07.889Z,11.15
2023-08-25T23:26:36.361Z,9.30
2023-08-25T23:29:03.479Z,11.25
2023-08-25T23:31:30.427Z,10.25
2023-08-25T23:33:57.440Z,12.13
2023-08-25T23:36:24.306Z,11.05
2023-08-25T23:38:51.021Z,11.73
2023-08-25T23:41:17.764Z,12.13
2023-08-25T23:43:44.820Z,12.27
2023-08-25T23:46:11.603Z,11.35
2023-08-25T23:48:38.449Z,12.03
2023-08-25T23:51:05.219Z,10.50
2023-08-25T23:53:32.263Z,12.00
2023-08-25T23:55:59.231Z,11.32
